createdAt,value
2023-06-04T00:02:04.839Z,75.83
2023-06-04T00:04:31.690Z,75.55
2023-06-04T00:06:58.428Z,75.68
2023-06-04T00:09:25.342Z,76.06
2023-06-04T00:11:52.196Z,76.43
2023-06-04T00:14:19.109Z,76.91
2023-06-04T00:16:46.194Z,76.66
2023-06-04T00:19:13.053Z,77.29
2023-06-04T00:21:39.985Z,77.27
2023-06-04T00:24:07.214Z,76.82
2023-06-04T00:26:34.596Z,76.54
2023-06-04T00:29:01.951Z,76.75
2023-06-04T00:31:28.831Z,76.66
2023-06-04T00:33:55.659Z,76.85
2023-06-04T00:36:22.613Z,76.84
2023-06-04T00:38:49.421Z,76.52
2023-06-04T00:41:16.312Z,76.69
2023-06-04T00:43:46.763Z,76.52
2023-06-04T00:46:19.573Z,76.72
2023-06-04T00:48:46.554Z,76.95
2023-06-04T00:51:13.997Z,76.41
2023-06-04T00:53:41.029Z,74.82
2023-06-04T00:56:08.104Z,74.38
2023-06-04T00:58:44.072Z,73.80
2023-06-04T01:01:41.896Z,73.03
2023-06-04T01:04:17.240Z,72.67
2023-06-04T01:06:52.334Z,72.73
2023-06-04T01:09:19.906Z,72.51
2023-06-04T01:11:46.704Z,72.76
2023-06-04T01:14:13.656Z,72.84
2023-06-04T01:17:02.752Z,72.66
2023-06-04T01:19:55.696Z,72.96
2023-06-04T01:22:41.444Z,73.15
2023-06-04T01:25:21.881Z,72.98
2023-06-04T01:27:56.943Z,73.07
2023-06-04T01:30:30.964Z,72.91
2023-06-04T01:32:58.548Z,72.94
2023-06-04T01:35:29.042Z,72.93
2023-06-04T01:37:56.887Z,72.73
2023-06-04T01:40:24.715Z,72.85
2023-06-04T01:42:51.564Z,73.21
2023-06-04T01:45:18.647Z,73.17
2023-06-04T01:47:45.562Z,73.25
2023-06-04T01:50:14.168Z,73.14
2023-06-04T01:52:41.634Z,73.48
2023-06-04T01:55:10.352Z,73.16
2023-06-04T01:57:37.557Z,73.24
2023-06-04T02:00:06.382Z,73.47
2023-06-04T02:02:44.060Z,73.28
2023-06-04T02:05:11.583Z,73.12
2023-06-04T02:07:43.521Z,73.26
2023-06-04T02:10:11.279Z,72.90
2023-06-04T02:12:42.626Z,73.27
2023-06-04T02:15:11.973Z,73.34
2023-06-04T02:17:41.231Z,73.42
2023-06-04T02:20:11.122Z,73.52
2023-06-04T02:22:38.742Z,73.56
2023-06-04T02:25:06.772Z,73.93
2023-06-04T02:27:33.581Z,74.25
2023-06-04T02:30:00.830Z,74.61
2023-06-04T02:32:27.848Z,74.61
2023-06-04T02:34:55.588Z,74.63
2023-06-04T02:37:23.513Z,74.89
2023-06-04T02:39:50.429Z,75.00
2023-06-04T02:42:17.386Z,74.98
2023-06-04T02:44:44.264Z,74.84
2023-06-04T02:47:11.109Z,75.14
2023-06-04T02:49:38.976Z,74.78
2023-06-04T02:52:06.434Z,74.89
2023-06-04T02:54:33.300Z,74.79
2023-06-04T02:57:01.044Z,74.70
2023-06-04T02:59:27.874Z,75.87
2023-06-04T03:01:55.601Z,74.09
2023-06-04T03:04:22.727Z,74.03
2023-06-04T03:06:53.749Z,73.86
2023-06-04T03:09:20.546Z,73.93
2023-06-04T03:11:47.335Z,73.54
2023-06-04T03:14:14.195Z,74.30
2023-06-04T03:16:41.181Z,74.32
2023-06-04T03:19:08.111Z,74.60
2023-06-04T03:21:35.240Z,74.73
2023-06-04T03:24:02.255Z,74.41
2023-06-04T03:26:29.291Z,74.75
2023-06-04T03:28:56.208Z,75.12
2023-06-04T03:31:23.183Z,75.63
2023-06-04T03:33:50.836Z,75.87
2023-06-04T03:36:17.779Z,76.11
2023-06-04T03:38:46.975Z,76.04
2023-06-04T03:41:14.564Z,76.22
2023-06-04T03:43:42.614Z,76.00
2023-06-04T03:46:11.710Z,75.96
2023-06-04T03:48:38.530Z,75.79
2023-06-04T03:51:05.739Z,75.80
2023-06-04T03:53:34.196Z,75.50
2023-06-04T03:56:01.989Z,75.49
2023-06-04T03:58:29.840Z,75.08
2023-06-04T04:00:58.354Z,75.19
2023-06-04T04:03:25.375Z,74.97
2023-06-04T04:05:52.672Z,74.90
2023-06-04T04:08:22.348Z,74.70
2023-06-04T04:10:49.752Z,74.79
2023-06-04T04:13:16.558Z,74.64
2023-06-04T04:15:43.320Z,74.87
2023-06-04T04:18:11.922Z,75.34
2023-06-04T04:20:40.375Z,75.55
2023-06-04T04:23:10.584Z,76.33
2023-06-04T04:25:40.372Z,76.21
2023-06-04T04:28:08.279Z,75.92
2023-06-04T04:30:37.132Z,75.68
2023-06-04T04:33:09.164Z,75.82
2023-06-04T04:35:46.197Z,76.10
2023-06-04T04:38:18.346Z,76.60
2023-06-04T04:40:53.236Z,77.01
2023-06-04T04:43:34.288Z,76.92
2023-06-04T04:46:27.283Z,77.15
2023-06-04T04:48:54.714Z,77.38
2023-06-04T04:51:21.661Z,77.19
2023-06-04T04:53:48.556Z,77.09
2023-06-04T04:56:16.163Z,76.98
2023-06-04T04:58:47.311Z,76.58
2023-06-04T05:01:14.194Z,76.61
2023-06-04T05:03:42.589Z,76.48
2023-06-04T05:06:11.602Z,76.49
2023-06-04T05:08:38.707Z,76.54
2023-06-04T05:11:06.211Z,76.23
2023-06-04T05:13:33.963Z,76.13
2023-06-04T05:16:07.773Z,76.18
2023-06-04T05:18:42.485Z,76.45
2023-06-04T05:21:13.228Z,76.49
2023-06-04T05:23:49.317Z,77.15
2023-06-04T05:26:19.036Z,77.48
2023-06-04T05:28:46.487Z,77.51
2023-06-04T05:31:17.000Z,77.52
2023-06-04T05:33:43.942Z,77.19
2023-06-04T05:36:15.806Z,77.38
2023-06-04T05:38:58.365Z,77.30
2023-06-04T05:41:30.037Z,77.53
2023-06-04T05:43:58.411Z,77.72
2023-06-04T05:46:25.253Z,77.46
2023-06-04T05:48:52.876Z,77.00
2023-06-04T05:51:21.186Z,76.62
2023-06-04T05:53:48.304Z,76.14
2023-06-04T05:56:16.173Z,76.05
2023-06-04T05:58:43.152Z,75.90
2023-06-04T06:01:11.663Z,76.02
2023-06-04T06:03:38.652Z,76.22
2023-06-04T06:06:06.916Z,75.98
2023-06-04T06:08:34.014Z,75.66
2023-06-04T06:11:01.413Z,75.05
2023-06-04T06:13:28.574Z,74.48
2023-06-04T06:15:56.964Z,74.23
2023-06-04T06:18:23.927Z,73.86
2023-06-04T06:20:50.816Z,73.42
2023-06-04T06:23:20.069Z,72.88
2023-06-04T06:25:47.373Z,72.43
2023-06-04T06:28:19.976Z,72.21
2023-06-04T06:30:48.766Z,71.93
2023-06-04T06:33:15.987Z,71.59
2023-06-04T06:35:42.993Z,71.58
2023-06-04T06:38:09.731Z,71.78
2023-06-04T06:40:36.593Z,71.90
2023-06-04T06:43:03.574Z,71.46
2023-06-04T06:45:30.446Z,71.80
2023-06-04T06:47:57.429Z,71.77
2023-06-04T06:50:24.348Z,71.16
2023-06-04T06:52:51.093Z,77.64
2023-06-04T06:55:18.015Z,70.70
2023-06-04T06:57:45.823Z,70.33
2023-06-04T07:00:13.103Z,72.75
2023-06-04T07:02:40.010Z,70.03
2023-06-04T07:05:07.166Z,69.69
2023-06-04T07:07:33.980Z,68.84
2023-06-04T07:10:01.054Z,68.99
2023-06-04T07:12:27.882Z,69.71
2023-06-04T07:14:54.692Z,67.87
2023-06-04T07:17:21.505Z,66.82
2023-06-04T07:19:48.417Z,67.53
2023-06-04T07:22:16.868Z,67.45
2023-06-04T07:24:43.892Z,67.44
2023-06-04T07:27:12.847Z,66.54
2023-06-04T07:29:39.664Z,66.66
2023-06-04T07:32:07.369Z,65.57
2023-06-04T07:34:34.404Z,65.66
2023-06-04T07:37:01.192Z,65.06
2023-06-04T07:39:27.980Z,64.95
2023-06-04T07:41:55.172Z,65.56
2023-06-04T07:44:21.923Z,65.79
2023-06-04T07:46:49.488Z,64.97
2023-06-04T07:49:16.750Z,65.53
2023-06-04T07:51:43.609Z,65.11
2023-06-04T07:54:11.373Z,64.52
2023-06-04T07:56:38.993Z,65.14
2023-06-04T07:59:05.866Z,65.10
2023-06-04T08:01:32.797Z,65.52
2023-06-04T08:04:02.996Z,66.63
2023-06-04T08:06:30.110Z,66.83
2023-06-04T08:08:56.910Z,66.78
2023-06-04T08:11:31.071Z,66.58
2023-06-04T08:14:00.900Z,66.62
2023-06-04T08:16:27.755Z,67.28
2023-06-04T08:18:54.594Z,67.67
2023-06-04T08:21:28.627Z,68.02
2023-06-04T08:23:56.568Z,67.65
2023-06-04T08:26:24.238Z,67.29
2023-06-04T08:28:52.803Z,67.15
2023-06-04T08:31:19.818Z,67.88
2023-06-04T08:33:47.539Z,67.68
2023-06-04T08:36:15.228Z,67.52
2023-06-04T08:38:42.110Z,66.80
2023-06-04T08:41:23.996Z,67.60
2023-06-04T08:43:51.997Z,66.68
2023-06-04T08:46:20.011Z,66.48
2023-06-04T08:48:47.328Z,66.62
2023-06-04T08:51:15.149Z,65.29
2023-06-04T08:53:43.750Z,65.11
2023-06-04T08:56:10.683Z,64.80
2023-06-04T08:58:41.398Z,65.39
2023-06-04T09:01:09.462Z,65.32
2023-06-04T09:03:38.364Z,65.26
2023-06-04T09:06:06.967Z,65.24
2023-06-04T09:08:37.957Z,65.10
2023-06-04T09:11:09.219Z,64.34
2023-06-04T09:13:37.112Z,64.58
2023-06-04T09:16:04.998Z,64.28
2023-06-04T09:18:31.884Z,64.28
2023-06-04T09:21:17.147Z,64.50
2023-06-04T09:23:48.453Z,64.38
2023-06-04T09:26:15.518Z,63.43
2023-06-04T09:28:43.738Z,62.84
2023-06-04T09:31:17.522Z,63.17
2023-06-04T09:33:50.009Z,63.23
2023-06-04T09:36:17.774Z,62.53
2023-06-04T09:38:44.918Z,64.08
2023-06-04T09:41:20.707Z,64.72
2023-06-04T09:43:47.605Z,64.57
2023-06-04T09:46:16.515Z,65.00
2023-06-04T09:48:44.603Z,64.09
2023-06-04T09:51:21.991Z,63.62
2023-06-04T09:53:57.116Z,62.95
2023-06-04T09:56:24.070Z,62.91
2023-06-04T09:58:51.299Z,62.12
2023-06-04T10:01:19.312Z,62.95
2023-06-04T10:03:52.740Z,63.25
2023-06-04T10:06:23.885Z,62.92
2023-06-04T10:08:51.965Z,62.65
2023-06-04T10:11:27.249Z,62.57
2023-06-04T10:14:18.939Z,60.93
2023-06-04T10:16:46.752Z,61.00
2023-06-04T10:19:14.132Z,61.07
2023-06-04T10:21:41.157Z,61.04
2023-06-04T10:24:08.913Z,61.05
2023-06-04T10:26:39.393Z,60.66
2023-06-04T10:29:06.963Z,61.43
2023-06-04T10:31:34.214Z,61.47
2023-06-04T10:34:01.850Z,61.70
2023-06-04T10:36:29.970Z,62.72
2023-06-04T10:38:57.077Z,62.56
2023-06-04T10:41:24.723Z,62.65
2023-06-04T10:44:01.566Z,62.44
2023-06-04T10:46:41.075Z,61.44
2023-06-04T10:49:11.121Z,61.77
2023-06-04T10:51:38.377Z,60.35
2023-06-04T10:54:05.954Z,58.94
2023-06-04T10:56:35.041Z,58.45
2023-06-04T10:59:13.831Z,58.52
2023-06-04T11:01:41.265Z,59.68
2023-06-04T11:04:08.167Z,59.39
2023-06-04T11:06:37.018Z,58.07
2023-06-04T11:09:06.887Z,59.20
2023-06-04T11:11:33.922Z,60.09
2023-06-04T11:14:17.209Z,61.29
2023-06-04T11:16:44.039Z,61.39
2023-06-04T11:19:11.017Z,61.71
2023-06-04T11:21:39.075Z,61.50
2023-06-04T11:24:06.488Z,61.15
2023-06-04T11:26:34.490Z,59.55
2023-06-04T11:29:02.055Z,59.72
2023-06-04T11:31:29.036Z,57.60
2023-06-04T11:33:56.022Z,58.29
2023-06-04T11:36:29.829Z,58.04
2023-06-04T11:38:58.869Z,59.65
2023-06-04T11:41:29.004Z,59.94
2023-06-04T11:43:57.471Z,60.35
2023-06-04T11:46:24.948Z,58.09
2023-06-04T11:48:54.085Z,58.96
2023-06-04T11:51:22.313Z,60.54
2023-06-04T11:53:49.441Z,59.67
2023-06-04T11:56:17.248Z,60.29
2023-06-04T11:58:44.894Z,59.59
2023-06-04T12:01:12.529Z,59.07
2023-06-04T12:03:41.690Z,59.16
2023-06-04T12:06:18.794Z,59.12
2023-06-04T12:08:51.039Z,58.78
2023-06-04T12:11:32.370Z,60.97
2023-06-04T12:14:01.539Z,61.07
2023-06-04T12:16:28.695Z,60.02
2023-06-04T12:19:13.127Z,59.53
2023-06-04T12:21:40.699Z,58.47
2023-06-04T12:24:12.236Z,58.32
2023-06-04T12:26:41.723Z,60.90
2023-06-04T12:29:17.181Z,60.94
2023-06-04T12:31:46.726Z,61.99
2023-06-04T12:34:18.846Z,63.48
2023-06-04T12:36:45.739Z,62.82
2023-06-04T12:39:12.651Z,64.25
2023-06-04T12:41:45.767Z,63.52
2023-06-04T12:44:12.651Z,62.15
2023-06-04T12:46:39.658Z,62.38
2023-06-04T12:49:06.800Z,62.00
2023-06-04T12:51:33.631Z,62.10
2023-06-04T12:54:00.722Z,63.19
2023-06-04T12:56:27.859Z,62.99
2023-06-04T12:58:54.756Z,63.37
2023-06-04T13:01:21.622Z,64.28
2023-06-04T13:03:53.310Z,64.10
2023-06-04T13:06:20.063Z,65.59
2023-06-04T13:08:47.153Z,66.02
2023-06-04T13:11:14.349Z,66.88
2023-06-04T13:13:41.234Z,67.21
2023-06-04T13:16:08.967Z,67.63
2023-06-04T13:18:35.970Z,67.55
2023-06-04T13:21:02.943Z,67.36
2023-06-04T13:23:45.433Z,67.31
2023-06-04T13:26:17.353Z,68.08
2023-06-04T13:28:48.230Z,67.77
2023-06-04T13:31:15.252Z,67.74
2023-06-04T13:33:46.117Z,67.72
2023-06-04T13:36:16.241Z,67.75
2023-06-04T13:38:46.382Z,68.34
2023-06-04T13:41:13.285Z,67.67
2023-06-04T13:43:40.236Z,67.37
2023-06-04T13:46:12.249Z,67.33
2023-06-04T13:48:39.547Z,67.77
2023-06-04T13:51:06.590Z,67.84
2023-06-04T13:53:33.682Z,68.08
2023-06-04T13:56:00.712Z,68.02
2023-06-04T13:58:28.008Z,68.07
2023-06-04T14:00:54.905Z,67.95
2023-06-04T14:03:22.003Z,67.45
2023-06-04T14:05:49.048Z,67.42
2023-06-04T14:08:15.926Z,67.77
2023-06-04T14:10:42.946Z,68.02
2023-06-04T14:13:10.625Z,67.91
2023-06-04T14:15:37.882Z,67.14
2023-06-04T14:18:06.130Z,66.41
2023-06-04T14:20:33.386Z,66.47
2023-06-04T14:23:00.988Z,67.05
2023-06-04T14:25:28.704Z,66.54
2023-06-04T14:27:55.784Z,66.56
2023-06-04T14:30:22.765Z,67.08
2023-06-04T14:32:49.892Z,67.37
2023-06-04T14:35:16.881Z,68.01
2023-06-04T14:37:43.931Z,67.72
2023-06-04T14:40:11.169Z,67.63
2023-06-04T14:42:38.071Z,67.90
2023-06-04T14:45:05.232Z,67.95
2023-06-04T14:47:32.204Z,68.37
2023-06-04T14:49:59.006Z,68.84
2023-06-04T14:52:25.835Z,68.78
2023-06-04T14:54:55.467Z,69.09
2023-06-04T14:57:22.402Z,68.58
2023-06-04T14:59:49.801Z,68.79
2023-06-04T15:02:20.593Z,68.82
2023-06-04T15:04:48.221Z,68.44
2023-06-04T15:07:16.157Z,68.86
2023-06-04T15:09:42.910Z,68.72
2023-06-04T15:12:09.683Z,68.39
2023-06-04T15:14:36.561Z,68.17
2023-06-04T15:17:03.465Z,67.42
2023-06-04T15:19:30.254Z,67.04
2023-06-04T15:21:57.269Z,66.01
2023-06-04T15:24:24.092Z,65.66
2023-06-04T15:26:51.402Z,65.21
2023-06-04T15:29:18.426Z,64.26
2023-06-04T15:31:45.405Z,63.64
2023-06-04T15:34:12.305Z,63.13
2023-06-04T15:36:39.582Z,62.17
2023-06-04T15:39:06.653Z,63.08
2023-06-04T15:41:33.557Z,62.12
2023-06-04T15:44:02.253Z,63.04
2023-06-04T15:46:31.074Z,61.54
2023-06-04T15:48:58.074Z,62.00
2023-06-04T15:51:24.926Z,58.44
2023-06-04T15:53:51.999Z,60.55
2023-06-04T15:56:20.070Z,59.71
2023-06-04T15:58:46.987Z,60.74
2023-06-04T16:01:13.934Z,59.97
2023-06-04T16:03:41.199Z,59.55
2023-06-04T16:06:08.210Z,57.94
2023-06-04T16:08:35.225Z,57.76
2023-06-04T16:11:01.986Z,58.21
2023-06-04T16:13:28.845Z,59.03
2023-06-04T16:15:56.716Z,60.45
2023-06-04T16:18:23.665Z,60.19
2023-06-04T16:20:50.902Z,59.99
2023-06-04T16:23:18.056Z,59.74
2023-06-04T16:25:45.179Z,59.48
2023-06-04T16:28:12.117Z,60.02
2023-06-04T16:30:39.002Z,61.43
2023-06-04T16:33:07.407Z,60.72
2023-06-04T16:35:34.544Z,60.92
2023-06-04T16:38:01.400Z,61.00
2023-06-04T16:40:28.247Z,60.51
2023-06-04T16:42:55.540Z,61.46
2023-06-04T16:45:22.478Z,61.41
2023-06-04T16:47:50.035Z,61.26
2023-06-04T16:50:17.595Z,61.55
2023-06-04T16:52:44.843Z,61.11
2023-06-04T16:55:12.032Z,61.80
2023-06-04T16:57:39.137Z,62.07
2023-06-04T17:00:21.280Z,62.53
2023-06-04T17:02:53.386Z,63.62
2023-06-04T17:05:24.343Z,64.36
2023-06-04T17:07:53.126Z,63.67
2023-06-04T17:10:20.536Z,64.09
2023-06-04T17:12:47.457Z,64.39
2023-06-04T17:15:14.298Z,64.46
2023-06-04T17:17:41.138Z,62.87
2023-06-04T17:20:08.473Z,62.06
2023-06-04T17:22:35.398Z,61.28
2023-06-04T17:25:02.239Z,61.48
2023-06-04T17:27:28.983Z,61.38
2023-06-04T17:29:55.811Z,61.05
2023-06-04T17:32:22.686Z,61.44
2023-06-04T17:34:51.221Z,61.30
2023-06-04T17:37:18.098Z,61.28
2023-06-04T17:39:45.360Z,61.10
2023-06-04T17:42:12.134Z,61.77
2023-06-04T17:44:38.987Z,61.60
2023-06-04T17:47:06.992Z,61.25
2023-06-04T17:49:34.157Z,61.37
2023-06-04T17:52:01.048Z,61.97
2023-06-04T17:54:27.914Z,62.32
2023-06-04T17:56:54.672Z,62.26
2023-06-04T17:59:21.491Z,62.68
2023-06-04T18:01:48.536Z,63.16
2023-06-04T18:04:16.671Z,63.67
2023-06-04T18:06:43.561Z,64.09
2023-06-04T18:09:10.530Z,64.21
2023-06-04T18:11:37.339Z,64.36
2023-06-04T18:14:06.218Z,64.42
2023-06-04T18:16:33.258Z,64.91
2023-06-04T18:19:00.092Z,65.67
2023-06-04T18:21:27.083Z,66.04
2023-06-04T18:23:54.507Z,66.11
2023-06-04T18:26:21.793Z,66.27
2023-06-04T18:28:48.621Z,66.53
2023-06-04T18:31:15.541Z,66.28
2023-06-04T18:34:01.354Z,66.25
2023-06-04T18:36:34.724Z,66.20
2023-06-04T18:39:10.421Z,66.65
2023-06-04T18:41:37.365Z,66.89
2023-06-04T18:44:04.252Z,66.90
2023-06-04T18:46:31.139Z,66.95
2023-06-04T18:49:00.256Z,67.46
2023-06-04T18:51:27.368Z,67.57
2023-06-04T18:53:54.137Z,68.17
2023-06-04T18:56:22.313Z,67.92
2023-06-04T18:58:51.734Z,67.61
2023-06-04T19:01:18.896Z,67.67
2023-06-04T19:03:46.342Z,68.16
2023-06-04T19:06:13.200Z,69.34
2023-06-04T19:08:40.032Z,69.03
2023-06-04T19:11:08.402Z,69.20
2023-06-04T19:13:35.345Z,69.56
2023-06-04T19:16:02.135Z,69.64
2023-06-04T19:18:29.038Z,69.89
2023-06-04T19:20:55.955Z,69.17
2023-06-04T19:23:22.760Z,69.20
2023-06-04T19:25:49.574Z,68.93
2023-06-04T19:28:17.811Z,68.80
2023-06-04T19:30:45.336Z,68.67
2023-06-04T19:33:12.991Z,69.04
2023-06-04T19:35:39.850Z,68.97
2023-06-04T19:38:06.929Z,69.26
2023-06-04T19:40:34.767Z,69.11
2023-06-04T19:43:01.659Z,68.83
2023-06-04T19:45:28.524Z,68.90
2023-06-04T19:47:55.419Z,68.61
2023-06-04T19:50:22.363Z,69.04
2023-06-04T19:52:49.285Z,69.37
2023-06-04T19:55:17.566Z,70.28
2023-06-04T19:57:45.604Z,69.88
2023-06-04T20:00:12.971Z,70.57
2023-06-04T20:02:41.586Z,71.24
2023-06-04T20:05:08.908Z,71.71
2023-06-04T20:07:35.860Z,72.04
2023-06-04T20:10:03.228Z,72.38
2023-06-04T20:12:30.113Z,72.03
2023-06-04T20:14:56.988Z,72.35
2023-06-04T20:17:23.930Z,72.63
2023-06-04T20:19:51.337Z,72.98
2023-06-04T20:22:18.170Z,72.89
2023-06-04T20:24:45.017Z,72.61
2023-06-04T20:27:12.209Z,72.44
2023-06-04T20:29:39.111Z,72.66
2023-06-04T20:32:06.407Z,72.81
2023-06-04T20:34:33.264Z,72.71
2023-06-04T20:37:04.035Z,72.77
2023-06-04T20:39:35.283Z,72.74
2023-06-04T20:42:02.157Z,73.19
2023-06-04T20:44:29.684Z,72.82
2023-06-04T20:46:56.913Z,72.84
2023-06-04T20:49:23.932Z,73.44
2023-06-04T20:51:50.786Z,73.29
2023-06-04T20:54:17.617Z,73.78
2023-06-04T20:56:44.591Z,73.37
2023-06-04T20:59:11.470Z,72.96
2023-06-04T21:01:38.365Z,73.00
2023-06-04T21:04:05.588Z,73.13
2023-06-04T21:06:32.573Z,72.75
2023-06-04T21:08:59.456Z,73.28
2023-06-04T21:11:28.000Z,73.21
2023-06-04T21:13:54.790Z,73.64
2023-06-04T21:16:21.579Z,73.08
2023-06-04T21:18:50.912Z,73.02
2023-06-04T21:21:17.924Z,73.48
2023-06-04T21:23:44.975Z,73.25
2023-06-04T21:26:11.956Z,73.22
2023-06-04T21:28:38.776Z,73.12
2023-06-04T21:31:05.771Z,73.56
2023-06-04T21:33:32.490Z,73.13
2023-06-04T21:35:59.343Z,72.92
2023-06-04T21:38:27.502Z,72.81
2023-06-04T21:40:54.878Z,72.95
2023-06-04T21:43:21.880Z,73.31
2023-06-04T21:45:49.122Z,73.15
2023-06-04T21:48:16.109Z,73.20
2023-06-04T21:50:43.102Z,73.30
2023-06-04T21:53:10.236Z,73.49
2023-06-04T21:55:37.029Z,73.76
2023-06-04T21:58:04.670Z,73.52
2023-06-04T22:00:31.568Z,73.33
2023-06-04T22:02:58.550Z,73.30
2023-06-04T22:05:25.446Z,73.08
2023-06-04T22:07:52.302Z,73.17
2023-06-04T22:10:19.111Z,73.67
2023-06-04T22:12:45.952Z,73.74
2023-06-04T22:15:12.862Z,74.21
2023-06-04T22:17:39.665Z,74.61
2023-06-04T22:20:07.312Z,74.39
2023-06-04T22:22:34.102Z,74.21
2023-06-04T22:25:00.927Z,74.50
2023-06-04T22:27:27.706Z,74.70
2023-06-04T22:29:54.650Z,75.07
2023-06-04T22:32:21.525Z,74.79
2023-06-04T22:34:48.533Z,75.35
2023-06-04T22:37:15.914Z,75.47
2023-06-04T22:39:42.858Z,75.40
2023-06-04T22:42:09.713Z,75.64
2023-06-04T22:44:36.637Z,75.46
2023-06-04T22:47:03.600Z,75.45
2023-06-04T22:49:30.599Z,75.22
2023-06-04T22:51:57.969Z,75.34
2023-06-04T22:54:24.789Z,75.85
2023-06-04T22:56:51.563Z,75.50
2023-06-04T22:59:18.477Z,75.23
2023-06-04T23:01:45.514Z,75.92
2023-06-04T23:04:13.666Z,75.63
2023-06-04T23:06:40.519Z,75.63
2023-06-04T23:09:09.752Z,75.52
2023-06-04T23:11:36.616Z,75.74
2023-06-04T23:14:03.462Z,76.03
2023-06-04T23:16:30.351Z,75.99
2023-06-04T23:18:57.199Z,75.98
2023-06-04T23:21:24.332Z,74.00
2023-06-04T23:23:51.335Z,72.95
2023-06-04T23:26:18.252Z,73.50
2023-06-04T23:28:45.000Z,73.29
2023-06-04T23:31:11.904Z,73.42
2023-06-04T23:33:38.896Z,73.57
2023-06-04T23:36:05.852Z,73.35
2023-06-04T23:38:32.682Z,73.71
2023-06-04T23:40:59.465Z,73.67
2023-06-04T23:43:26.280Z,73.88
2023-06-04T23:45:53.114Z,74.31
2023-06-04T23:48:19.993Z,73.67
2023-06-04T23:50:47.250Z,73.31
2023-06-04T23:53:14.052Z,73.51
2023-06-04T23:55:41.007Z,73.70
2023-06-04T23:58:07.864Z,73.97
